< < Back
Terminal Aerodrome Forecast


Current Version              Previous Versions:   1  2  3  4  5  6  7  8  9  

Terminal Aerodrome Forecast

176
FTUS42 KFFC 262337
TAFFTY
TAF
KFTY 262337Z 2700/2724 23006KT P6SM SCT050 BKN200
     FM270200 24006KT P6SM VCSH SCT035 BKN050
      TEMPO 2702/2704 6SM -SHRA BR BKN035
     FM270400 30010G16KT 6SM -SHRA BR OVC020
     FM270600 31010KT P6SM -RA OVC008
     FM271100 32011G21KT P6SM BKN020
     FM271500 33014G24KT P6SM SCT025 BKN050
     FM272100 32010G20KT P6SM BKN070=

Latest METAR

360
SAUS70 KWBC 270500 RRT
MTRFTY
METAR KFTY 270453Z 33010G21KT 10SM -RA FEW017 BKN024 OVC035 13/11 A2980
RMK AO2 WSHFT 0430 RAB45 SLP086 P0001 T01280111 402280128


USA.gov is the U.S. government's official web portal to all federal, state and local government web resources and services.